Weather at Birmingham-Shuttlesworth International Airport

Public forecast

Using degrees Fahrenheit for public forecast. Weather courtesy of forecast.io.

Current aviation weather report (METAR) for Birmingham-Shuttlesworth International Airport

Report is more than 6 hours old.

2022/11/14 14:53 (retrieved 2 years ago)

KBHM 141453Z 11009KT 10SM FEW150 SCT250 05/M02 A3029 RMK AO2 SLP260 T00501022 51008

Aviation forecast (TAF) for Birmingham-Shuttlesworth International Airport

Forecast is more than 12 hours old.

2023/02/22 18:40 (retrieved 1 year ago)

TAF KBHM 221738Z 2218/2318 18015G26KT P6SM FEW045 FM230400 20017KT P6SM OVC020 FM231100 22008KT P6SM OVC013 FM231700 22008KT P6SM BKN025